Time;durP1;ratioP1;P1;durP2;ratioP2;P2;SDS_P1;SDS_P2;PMS_P1;PMS_P2;Temp;Humidity;BMP_temperature;BMP_pressure;BME280_temperature;BME280_humidity;BME280_pressure;Samples;Min_cycle;Max_cycle;Signal;HPM_P1;HPM_P2
2023/02/10 00:00:42;;;;;;;140.05;55.17;;;;;;;-7.44;91.17;97815.06;2097700;28;20043;-75
2023/02/10 00:01:43;;;;;;;129.70;52.50;;;;;;;-7.29;90.78;97840.22;2106675;28;20036;-76
2023/02/10 00:02:44;;;;;;;132.55;55.03;;;;;;;-7.27;90.60;97842.81;2106701;28;20460;-76
2023/02/10 00:03:46;;;;;;;143.25;51.78;;;;;;;-7.30;89.99;97837.63;2106671;28;20102;-75
2023/02/10 00:04:47;;;;;;;135.70;53.28;;;;;;;-7.28;90.67;97841.97;2097694;28;20436;-76
2023/02/10 00:05:48;;;;;;;131.32;53.67;;;;;;;-7.30;90.46;97852.75;2097614;28;20044;-76
2023/02/10 00:06:49;;;;;;;139.70;54.60;;;;;;;-7.33;91.10;97835.81;2106736;28;20147;-76
2023/02/10 00:07:50;;;;;;;147.40;53.65;;;;;;;-7.37;90.72;97849.06;2097569;28;20049;-77
2023/02/10 00:08:56;;;;;;;134.00;53.03;;;;;;;-7.41;89.88;97853.06;2097652;28;20040;-77
2023/02/10 00:09:57;;;;;;;136.70;55.53;;;;;;;-7.46;89.87;97843.53;2106531;28;20070;-77
2023/02/10 00:10:59;;;;;;;134.88;53.08;;;;;;;-7.43;90.75;97856.28;2106633;28;20028;-77
2023/02/10 00:12:00;;;;;;;124.70;52.67;;;;;;;-7.43;90.63;97853.78;2106549;28;20047;-77
2023/02/10 00:13:01;;;;;;;129.27;50.00;;;;;;;-7.42;90.16;97861.44;2106571;28;20044;-76
2023/02/10 00:14:02;;;;;;;135.63;53.28;;;;;;;-7.41;89.55;97855.59;2106676;28;20029;-77
2023/02/10 00:15:04;;;;;;;126.82;51.42;;;;;;;-7.41;89.58;97859.78;2106563;28;20044;-77
2023/02/10 00:16:07;;;;;;;124.10;51.55;;;;;;;-7.42;89.63;97856.38;2106570;28;20051;-76
2023/02/10 00:17:08;;;;;;;134.77;52.80;;;;;;;-7.43;89.89;97856.28;2106485;28;20099;-77
2023/02/10 00:18:09;;;;;;;128.05;51.35;;;;;;;-7.43;89.81;97857.19;2106536;28;20054;-76
2023/02/10 00:19:11;;;;;;;136.32;52.67;;;;;;;-7.44;89.95;97857.97;2106376;28;20044;-76
2023/02/10 00:20:12;;;;;;;146.38;53.50;;;;;;;-7.44;90.40;97857.97;2106665;28;20059;-76
2023/02/10 00:21:14;;;;;;;133.75;52.85;;;;;;;-7.55;90.49;97848.97;2106530;28;20063;-76
2023/02/10 00:22:16;;;;;;;138.55;53.60;;;;;;;-7.53;89.82;97852.44;2106497;28;20044;-77
2023/02/10 00:23:17;;;;;;;136.32;52.15;;;;;;;-7.51;90.74;97853.41;2105898;28;20036;-76
2023/02/10 00:24:18;;;;;;;130.90;53.40;;;;;;;-7.41;91.87;97859.78;2106525;28;20036;-77
2023/02/10 00:25:20;;;;;;;130.73;51.75;;;;;;;-7.38;92.03;97855.75;2097674;28;20107;-76
2023/02/10 00:26:21;;;;;;;129.93;53.65;;;;;;;-7.61;93.03;97818.38;2097475;28;20475;-77
2023/02/10 00:27:23;;;;;;;127.40;52.70;;;;;;;-7.39;92.89;97855.69;2097034;28;20059;-77
2023/02/10 00:28:24;;;;;;;127.32;47.75;;;;;;;-7.42;93.48;97850.47;2097762;28;20413;-77
2023/02/10 00:29:26;;;;;;;126.50;50.55;;;;;;;-7.39;93.01;97854.03;2106669;28;20028;-77
2023/02/10 00:30:27;;;;;;;121.93;49.40;;;;;;;-7.33;93.14;97858.50;2106444;28;20032;-77
2023/02/10 00:31:28;;;;;;;122.28;49.28;;;;;;;-7.38;92.82;97837.22;2097632;28;20084;-77
2023/02/10 00:32:29;;;;;;;118.93;48.17;;;;;;;-7.21;93.65;97849.06;2089253;28;20416;-77
2023/02/10 00:33:30;;;;;;;118.05;49.42;;;;;;;-7.16;92.90;97854.34;2089209;28;20048;-77
2023/02/10 00:34:31;;;;;;;119.57;49.42;;;;;;;-7.19;93.73;97852.53;2089474;28;20052;-77
2023/02/10 00:35:32;;;;;;;114.25;47.92;;;;;;;-7.17;93.84;97850.94;2089224;28;20033;-77
2023/02/10 00:36:33;;;;;;;124.40;50.67;;;;;;;-7.18;92.44;97854.28;2097556;28;20032;-76
2023/02/10 00:37:36;;;;;;;118.80;48.78;;;;;;;-7.24;93.35;97856.50;2097427;28;20410;-76
2023/02/10 00:38:37;;;;;;;115.72;48.85;;;;;;;-7.30;93.49;97858.66;2097365;28;20032;-76
2023/02/10 00:39:38;;;;;;;122.28;52.20;;;;;;;-7.32;92.30;97858.63;2097507;28;20045;-76
2023/02/10 00:40:40;;;;;;;114.88;48.30;;;;;;;-7.35;93.13;97855.94;2089491;28;20033;-75
2023/02/10 00:41:41;;;;;;;122.35;50.10;;;;;;;-7.38;91.94;97860.78;2089268;28;20040;-76
2023/02/10 00:42:43;;;;;;;117.57;50.05;;;;;;;-7.41;91.27;97859.78;2097571;28;20036;-76
2023/02/10 00:43:44;;;;;;;120.70;48.00;;;;;;;-7.42;91.81;97866.50;2089676;28;20044;-75
2023/02/10 00:44:45;;;;;;;122.88;47.05;;;;;;;-7.41;90.79;97865.69;2089298;28;20461;-76
2023/02/10 00:45:46;;;;;;;117.43;48.25;;;;;;;-7.42;91.10;97860.56;2097470;28;20044;-75
2023/02/10 00:46:48;;;;;;;130.35;50.42;;;;;;;-7.37;90.50;97865.06;2097734;28;20044;-76
2023/02/10 00:47:49;;;;;;;118.63;48.20;;;;;;;-7.34;91.16;97866.88;2097448;28;20428;-76
2023/02/10 00:48:50;;;;;;;117.78;47.63;;;;;;;-7.31;90.50;97872.09;2097391;28;20044;-75
2023/02/10 00:49:52;;;;;;;124.90;50.70;;;;;;;-7.27;90.71;97873.13;2097427;28;20033;-75
2023/02/10 00:50:55;;;;;;;119.57;48.05;;;;;;;-7.28;90.70;97864.69;2097348;28;20044;-76
2023/02/10 00:51:57;;;;;;;128.27;49.75;;;;;;;-7.21;91.12;97881.88;2097423;28;20541;-77
2023/02/10 00:53:00;;;;;;;128.52;50.47;;;;;;;-7.18;90.78;97882.03;2097062;28;20037;-77
2023/02/10 00:54:01;;;;;;;113.13;45.97;;;;;;;-7.18;92.00;97874.47;2089228;28;20041;-77
2023/02/10 00:55:02;;;;;;;117.63;47.20;;;;;;;-7.25;91.82;97869.03;2097559;28;20044;-77
2023/02/10 00:56:03;;;;;;;123.07;48.25;;;;;;;-7.21;92.21;97881.88;2097579;28;20031;-77
2023/02/10 00:57:04;;;;;;;129.32;49.15;;;;;;;-7.21;93.17;97886.06;2097599;28;20123;-77
2023/02/10 00:58:05;;;;;;;111.38;48.13;;;;;;;-7.25;92.76;97885.03;2089314;28;20045;-76
2023/02/10 00:59:06;;;;;;;119.68;47.92;;;;;;;-7.32;92.52;97883.84;2097315;28;20040;-77
2023/02/10 01:00:10;;;;;;;123.03;49.13;;;;;;;-7.34;91.99;97894.66;2089016;28;20052;-77
2023/02/10 01:01:11;;;;;;;125.22;48.22;;;;;;;-7.38;91.68;97890.22;2089500;28;20139;-76
2023/02/10 01:02:12;;;;;;;124.72;48.25;;;;;;;-7.43;91.16;97886.59;2106602;28;20066;-77
2023/02/10 01:03:14;;;;;;;118.05;47.47;;;;;;;-7.45;91.93;97896.63;2106297;28;20036;-77
2023/02/10 01:04:16;;;;;;;131.85;46.95;;;;;;;-7.54;92.66;97883.50;2097319;28;20427;-77
2023/02/10 01:05:17;;;;;;;118.57;49.20;;;;;;;-7.54;92.72;97893.59;2089658;28;20037;-77
2023/02/10 01:06:18;;;;;;;125.45;48.50;;;;;;;-7.63;92.12;97883.03;2097362;28;20130;-77
2023/02/10 01:07:19;;;;;;;107.10;46.28;;;;;;;-7.57;91.69;97895.94;2106377;28;20081;-77
2023/02/10 01:08:21;;;;;;;124.97;49.28;;;;;;;-7.57;91.52;97899.34;2097349;28;20041;-77
2023/02/10 01:09:22;;;;;;;122.85;48.92;;;;;;;-7.56;92.06;97897.72;2097549;28;20047;-77
2023/02/10 01:10:23;;;;;;;124.18;48.72;;;;;;;-7.58;92.75;97904.31;2097347;28;20044;-77
2023/02/10 01:11:24;;;;;;;118.13;47.80;;;;;;;-7.62;91.69;97904.94;2106399;28;20032;-77
2023/02/10 01:12:25;;;;;;;119.65;48.05;;;;;;;-7.62;92.15;97903.28;2097973;28;20044;-77
2023/02/10 01:13:26;;;;;;;123.47;48.80;;;;;;;-7.63;90.66;97909.13;2098023;28;20043;-77
2023/02/10 01:14:28;;;;;;;113.93;47.63;;;;;;;-7.67;90.89;97901.28;2097332;28;20049;-77
2023/02/10 01:15:29;;;;;;;117.32;47.47;;;;;;;-7.68;90.05;97904.59;2090127;28;20405;-76
2023/02/10 01:16:30;;;;;;;118.70;46.30;;;;;;;-7.69;90.35;97907.94;2097331;28;20043;-77
2023/02/10 01:17:31;;;;;;;135.35;50.90;;;;;;;-7.72;90.55;97902.69;2106449;28;20031;-77
2023/02/10 01:18:32;;;;;;;128.65;48.60;;;;;;;-7.73;90.56;97911.06;2097381;28;20041;-77
2023/02/10 01:19:33;;;;;;;116.53;47.97;;;;;;;-7.75;90.76;97900.91;2097257;28;20457;-77
2023/02/10 01:20:37;;;;;;;137.50;51.28;;;;;;;-7.77;91.71;97902.47;2088936;28;20044;-77
2023/02/10 01:21:39;;;;;;;134.52;51.90;;;;;;;-7.81;91.21;97898.88;2081638;28;20049;-77
2023/02/10 01:22:40;;;;;;;118.65;47.47;;;;;;;-7.79;90.92;97897.31;2080761;28;20441;-76
2023/02/10 01:23:41;;;;;;;117.97;45.95;;;;;;;-7.79;90.37;97893.94;2088734;28;20060;-76
2023/02/10 01:24:42;;;;;;;117.32;47.05;;;;;;;-7.77;90.45;97905.00;2106258;28;20032;-76
2023/02/10 01:25:43;;;;;;;115.00;45.85;;;;;;;-7.81;89.42;97908.13;2097537;28;20059;-77
2023/02/10 01:26:44;;;;;;;122.75;48.38;;;;;;;-7.81;90.70;97903.06;2097473;28;20044;-75
2023/02/10 01:27:46;;;;;;;117.40;44.85;;;;;;;-7.84;90.43;97915.50;2097209;28;20052;-75
2023/02/10 01:28:48;;;;;;;116.78;45.85;;;;;;;-7.87;90.50;97906.13;2097213;28;20055;-75
2023/02/10 01:29:49;;;;;;;106.68;44.08;;;;;;;-7.86;91.01;97907.00;2088918;28;20045;-75
2023/02/10 01:30:50;;;;;;;113.28;47.25;;;;;;;-7.89;91.18;97910.22;2089053;28;20052;-75
2023/02/10 01:31:51;;;;;;;114.15;43.97;;;;;;;-7.89;90.18;97915.25;2097512;28;20040;-74
2023/02/10 01:32:53;;;;;;;124.30;48.33;;;;;;;-7.90;90.90;97911.00;2097334;28;20483;-75
2023/02/10 01:33:54;;;;;;;127.32;47.63;;;;;;;-7.95;90.47;97902.31;2097231;28;20535;-75
2023/02/10 01:34:55;;;;;;;133.82;49.33;;;;;;;-7.89;91.44;97910.22;2090029;28;20473;-75
2023/02/10 01:35:56;;;;;;;130.57;48.45;;;;;;;-7.84;92.39;97911.34;2098763;28;20067;-75
2023/02/10 01:36:57;;;;;;;134.07;49.28;;;;;;;-7.85;94.27;97906.22;2107810;28;20039;-75
2023/02/10 01:37:58;;;;;;;138.45;51.75;;;;;;;-7.84;93.63;97906.28;2098959;28;20435;-75
2023/02/10 01:39:00;;;;;;;133.88;51.35;;;;;;;-7.88;93.16;97904.41;2098899;28;20384;-75
2023/02/10 01:40:01;;;;;;;126.22;47.85;;;;;;;-7.87;94.30;97907.78;2098969;28;20047;-75
2023/02/10 01:41:03;;;;;;;131.70;50.97;;;;;;;-7.86;93.85;97907.00;2098936;28;20045;-75
2023/02/10 01:42:04;;;;;;;125.45;47.42;;;;;;;-7.88;93.42;97904.41;2090920;28;20048;-75
2023/02/10 01:43:13;;;;;;;134.60;49.60;;;;;;;-7.89;93.97;97906.81;2090446;28;20457;-75
2023/02/10 01:44:19;;;;;;;128.32;49.25;;;;;;;-7.89;92.51;97905.16;2091792;28;20052;-75
2023/02/10 01:45:28;;;;;;;113.82;45.35;;;;;;;-7.93;92.60;97908.31;2091471;28;20037;-75
2023/02/10 01:46:33;;;;;;;122.15;47.65;;;;;;;-7.91;91.94;97909.28;2083373;28;20428;-75
2023/02/10 01:47:36;;;;;;;106.88;43.92;;;;;;;-7.91;91.58;97908.38;2084326;28;20405;-75
2023/02/10 01:48:37;;;;;;;117.50;45.63;;;;;;;-7.89;91.59;97917.78;2098746;28;20039;-75
2023/02/10 01:49:45;;;;;;;129.90;46.83;;;;;;;-8.07;91.68;97899.09;2107630;28;20051;-75
2023/02/10 01:50:58;;;;;;;123.80;46.78;;;;;;;-7.93;91.47;97917.53;2098856;28;20044;-75
2023/02/10 01:52:00;;;;;;;131.15;48.53;;;;;;;-7.94;91.47;97911.59;2084187;28;20045;-74
2023/02/10 01:53:01;;;;;;;132.38;47.85;;;;;;;-7.86;92.56;97912.94;2083368;28;20049;-75
2023/02/10 01:54:02;;;;;;;124.07;49.55;;;;;;;-7.88;92.86;97914.50;2082321;28;20044;-75
2023/02/10 01:55:07;;;;;;;122.65;47.15;;;;;;;-7.87;92.16;97918.75;2082278;28;20041;-75
2023/02/10 01:56:08;;;;;;;123.97;48.95;;;;;;;-8.00;92.26;97893.63;2090955;28;20037;-75
2023/02/10 01:57:09;;;;;;;110.80;43.90;;;;;;;-7.99;91.79;97906.34;2090384;28;20073;-75
2023/02/10 01:58:12;;;;;;;120.97;45.83;;;;;;;-7.97;91.66;97911.44;2073955;28;20038;-75
2023/02/10 01:59:13;;;;;;;116.05;45.17;;;;;;;-8.02;90.52;97912.84;2074401;28;20037;-75
2023/02/10 02:00:14;;;;;;;110.00;44.25;;;;;;;-8.03;90.11;97917.03;2082242;28;20473;-75
2023/02/10 02:01:17;;;;;;;114.35;45.65;;;;;;;-8.03;90.14;97913.63;2098939;28;20036;-75
2023/02/10 02:02:18;;;;;;;120.40;48.67;;;;;;;-8.04;91.67;97920.34;2098547;28;20047;-75
2023/02/10 02:03:20;;;;;;;122.15;47.42;;;;;;;-8.11;92.24;97902.25;2090280;28;20504;-75
2023/02/10 02:04:21;;;;;;;126.13;48.47;;;;;;;-8.19;91.74;97890.88;2090504;28;20049;-75
2023/02/10 02:05:33;;;;;;;116.97;45.83;;;;;;;-8.16;90.91;97908.69;2082061;28;20037;-75
2023/02/10 02:06:35;;;;;;;121.60;44.95;;;;;;;-8.17;90.81;97910.34;2085171;28;20038;-75
2023/02/10 02:07:36;;;;;;;118.32;46.22;;;;;;;-8.21;90.35;97909.28;2091349;28;20051;-75
2023/02/10 02:08:37;;;;;;;97.10;40.50;;;;;;;-8.27;90.23;97903.06;2090330;28;20382;-74
2023/02/10 02:09:38;;;;;;;128.20;47.92;;;;;;;-8.24;90.46;97916.69;2090392;28;20472;-74
2023/02/10 02:10:56;;;;;;;108.68;43.95;;;;;;;-8.21;90.15;97921.03;2090368;28;20037;-75
2023/02/10 02:12:05;;;;;;;107.45;44.10;;;;;;;-8.24;90.13;97920.88;2092858;28;20041;-75
2023/02/10 02:13:20;;;;;;;113.55;43.55;;;;;;;-8.24;89.48;97919.22;2091324;28;20047;-75
2023/02/10 02:14:33;;;;;;;112.28;44.22;;;;;;;-8.25;89.63;97916.63;2083978;28;20029;-75
2023/02/10 02:15:46;;;;;;;115.13;42.30;;;;;;;-8.50;89.45;97881.63;2086815;28;20041;-75
2023/02/10 02:16:57;;;;;;;107.25;42.85;;;;;;;-8.32;89.42;97917.03;2085009;28;20075;-75
2023/02/10 02:18:06;;;;;;;121.43;44.38;;;;;;;-8.42;88.69;97903.06;2093498;28;20048;-75
2023/02/10 02:19:07;;;;;;;;;;;;;;;-8.32;89.50;97919.56;2090382;28;20064;-75
2023/02/10 02:21:59;;;;;;;111.35;40.38;;;;;;;-8.40;89.51;97911.59;2098470;28;20032;-75
2023/02/10 02:23:54;;;;;;;123.07;43.17;;;;;;;-8.45;89.88;97916.38;2093386;28;20036;-74
2023/02/10 02:25:18;;;;;;;116.07;43.10;;;;;;;-8.49;89.41;97914.47;2073398;28;20049;-75
2023/02/10 02:26:41;;;;;;;121.57;43.60;;;;;;;-8.55;89.09;97901.53;2073407;28;20041;-75
2023/02/10 02:28:00;;;;;;;121.40;44.03;;;;;;;-8.49;89.49;97913.63;2088871;28;20052;-74
2023/02/10 02:29:19;;;;;;;;;;;;;;;-8.51;89.86;97911.00;2095495;28;20036;-75
2023/02/10 02:30:46;;;;;;;117.68;42.17;;;;;;;-8.50;90.56;97914.38;2100996;28;19912;-74
2023/02/10 02:32:19;;;;;;;110.35;43.13;;;;;;;-8.54;90.42;97910.81;2090123;28;20469;-75
2023/02/10 02:33:37;;;;;;;124.70;44.67;;;;;;;-8.56;90.62;97914.03;2090774;28;20052;-75
2023/02/10 02:34:40;;;;;;;111.50;40.80;;;;;;;-8.63;90.26;97900.22;2081732;28;20507;-75
2023/02/10 02:35:52;;;;;;;110.78;42.53;;;;;;;-8.56;91.13;97909.00;2082424;28;20049;-75
2023/02/10 02:37:02;;;;;;;109.28;42.60;;;;;;;-8.59;90.32;97911.34;2075415;28;20038;-75
2023/02/10 02:38:03;;;;;;;113.28;44.70;;;;;;;-8.60;90.47;97904.56;2084207;28;20056;-75
2023/02/10 02:39:04;;;;;;;118.90;47.35;;;;;;;-8.60;90.89;97904.56;2090080;28;20461;-75
2023/02/10 02:40:06;;;;;;;131.77;49.45;;;;;;;-8.52;92.50;97910.91;2081855;28;20049;-74
2023/02/10 02:41:08;;;;;;;119.95;46.63;;;;;;;-8.44;93.46;97904.66;2097812;28;20119;-75
2023/02/10 02:42:22;;;;;;;116.40;45.05;;;;;;;-8.40;93.57;97914.13;2107284;28;20093;-75
2023/02/10 02:43:23;;;;;;;125.97;45.75;;;;;;;-8.44;93.45;97902.16;2098401;28;20044;-75
2023/02/10 02:44:26;;;;;;;112.38;43.95;;;;;;;-8.40;93.38;97910.75;2090070;28;20048;-75
2023/02/10 02:45:36;;;;;;;118.50;47.33;;;;;;;-8.28;92.47;97922.34;2098160;28;20040;-74
2023/02/10 02:46:56;;;;;;;111.03;42.95;;;;;;;-8.27;92.51;97911.47;2097785;28;20035;-75
2023/02/10 02:48:05;;;;;;;110.22;42.55;;;;;;;-8.28;92.02;97917.31;2081997;28;20124;-75
2023/02/10 02:49:13;;;;;;;109.47;43.92;;;;;;;-8.32;92.53;97914.53;2076284;28;20509;-75
2023/02/10 02:50:45;;;;;;;107.40;41.70;;;;;;;-8.34;91.54;97916.97;2099204;28;20060;-75
2023/02/10 02:51:52;;;;;;;90.93;38.88;;;;;;;-8.39;90.67;97914.97;2098562;28;20551;-75
2023/02/10 02:53:46;;;;;;;99.93;40.33;;;;;;;-8.38;90.18;97921.75;2074798;28;20041;-75
2023/02/10 02:55:05;;;;;;;101.95;40.88;;;;;;;-8.54;90.72;97894.84;2063646;28;20485;-75
2023/02/10 02:56:18;;;;;;;104.68;41.58;;;;;;;-8.43;90.08;97913.94;2091400;28;20056;-75
2023/02/10 02:57:27;;;;;;;106.40;41.70;;;;;;;-8.34;91.28;97914.47;2100385;28;20076;-75
2023/02/10 02:58:38;;;;;;;104.82;42.88;;;;;;;-8.13;92.44;97903.81;2098193;28;20032;-75
2023/02/10 02:59:42;;;;;;;106.90;41.38;;;;;;;-8.11;93.42;97904.78;2091046;28;20037;-75
2023/02/10 03:00:44;;;;;;;103.32;42.45;;;;;;;-8.08;93.05;97904.94;2090298;28;20045;-75
2023/02/10 03:01:54;;;;;;;100.38;43.85;;;;;;;-7.99;93.45;97908.84;2081659;28;20033;-75
2023/02/10 03:02:57;;;;;;;106.93;42.88;;;;;;;-8.02;93.82;97902.75;2076169;28;20072;-75
2023/02/10 03:03:58;;;;;;;101.20;41.60;;;;;;;-7.99;93.64;97901.28;2090378;28;20151;-75
2023/02/10 03:04:59;;;;;;;97.38;41.95;;;;;;;-8.15;92.92;97880.16;2098008;28;20048;-75
2023/02/10 03:06:00;;;;;;;100.88;39.83;;;;;;;-8.00;93.88;97897.00;2081921;28;20030;-75
2023/02/10 03:07:02;;;;;;;97.18;40.25;;;;;;;-7.71;93.97;97894.34;2081683;28;20045;-75
2023/02/10 03:08:03;;;;;;;91.63;39.38;;;;;;;-7.52;94.47;97897.06;2098129;28;20044;-76
2023/02/10 03:09:05;;;;;;;95.60;40.20;;;;;;;-7.45;94.57;97889.03;2107083;28;20039;-76
2023/02/10 03:10:06;;;;;;;90.15;39.53;;;;;;;-7.49;95.48;97899.75;2088952;28;20072;-76
2023/02/10 03:11:07;;;;;;;94.22;39.15;;;;;;;-7.51;94.99;97893.78;2089782;28;20063;-75
2023/02/10 03:12:08;;;;;;;82.32;38.85;;;;;;;-7.51;94.44;97891.25;2107128;28;20036;-75
2023/02/10 03:13:09;;;;;;;88.95;39.10;;;;;;;-7.51;94.24;97867.66;2107018;28;20043;-75
2023/02/10 03:14:10;;;;;;;82.95;37.50;;;;;;;-7.41;94.21;97902.69;2107040;28;20043;-77
2023/02/10 03:15:11;;;;;;;89.00;37.38;;;;;;;-7.53;95.00;97905.44;2107044;28;20044;-75
2023/02/10 03:16:12;;;;;;;88.22;38.10;;;;;;;-7.53;94.04;97907.09;2106911;28;20032;-77
2023/02/10 03:17:14;;;;;;;86.15;37.95;;;;;;;-7.62;93.68;97910.84;2106987;28;20040;-76
2023/02/10 03:18:15;;;;;;;80.53;37.45;;;;;;;-7.66;93.25;97905.56;2107047;28;20040;-77
2023/02/10 03:19:16;;;;;;;89.63;38.67;;;;;;;-7.64;94.07;97906.53;2106852;28;20048;-77
2023/02/10 03:20:17;;;;;;;92.63;37.63;;;;;;;-7.68;93.91;97909.66;2107003;28;20056;-77
2023/02/10 03:21:18;;;;;;;82.93;36.72;;;;;;;-7.70;93.98;97911.22;2106991;28;20040;-77
2023/02/10 03:22:19;;;;;;;89.95;37.25;;;;;;;-7.68;92.80;97909.66;2107012;28;20036;-76
2023/02/10 03:23:21;;;;;;;93.30;36.88;;;;;;;-7.66;93.07;97908.09;2088978;28;20045;-77
2023/02/10 03:24:22;;;;;;;87.50;39.20;;;;;;;-7.70;92.63;97908.69;2090711;28;20040;-78
2023/02/10 03:25:23;;;;;;;82.25;37.05;;;;;;;-7.94;93.02;97873.78;2107216;28;20059;-77
2023/02/10 03:26:24;;;;;;;92.53;38.35;;;;;;;-7.79;91.92;97906.56;2098119;28;20057;-77
2023/02/10 03:27:25;;;;;;;86.93;37.67;;;;;;;-7.82;92.37;97907.25;2097962;28;20045;-77
2023/02/10 03:28:26;;;;;;;84.50;37.17;;;;;;;-7.83;90.88;97905.53;2097959;28;20032;-75
2023/02/10 03:29:27;;;;;;;83.70;36.75;;;;;;;-7.83;91.40;97894.53;2081415;28;20520;-76
2023/02/10 03:30:29;;;;;;;84.32;37.33;;;;;;;-7.78;90.89;97905.75;2081420;28;20048;-77
2023/02/10 03:31:30;;;;;;;85.40;36.53;;;;;;;-7.77;91.01;97903.31;2097859;28;20473;-77
2023/02/10 03:32:31;;;;;;;89.20;38.22;;;;;;;-7.79;91.10;97892.28;2106817;28;20443;-77
2023/02/10 03:33:32;;;;;;;90.15;40.42;;;;;;;-7.72;90.90;97900.16;2097990;28;20024;-76
2023/02/10 03:34:33;;;;;;;91.65;40.50;;;;;;;-7.76;91.17;97894.97;2097908;28;20040;-77
2023/02/10 03:35:35;;;;;;;93.60;39.42;;;;;;;-7.71;90.98;97895.22;2107030;28;20036;-77
2023/02/10 03:36:36;;;;;;;89.72;37.58;;;;;;;-7.68;91.41;97884.44;2097734;28;20040;-77
2023/02/10 03:37:38;;;;;;;86.05;38.08;;;;;;;-7.53;92.01;97902.91;2089804;28;20610;-77
2023/02/10 03:38:39;;;;;;;91.55;39.17;;;;;;;-7.52;91.66;97903.78;2097773;28;20035;-76
2023/02/10 03:39:40;;;;;;;86.88;38.58;;;;;;;-7.49;92.37;97896.38;2106307;28;20043;-77
2023/02/10 03:40:41;;;;;;;85.93;38.33;;;;;;;-7.46;91.81;97902.44;2097952;28;20439;-77
2023/02/10 03:41:42;;;;;;;83.30;37.88;;;;;;;-7.45;91.92;97899.16;2089644;28;20045;-77
2023/02/10 03:42:43;;;;;;;91.22;38.63;;;;;;;-7.50;92.24;97889.59;2097795;28;20044;-77
2023/02/10 03:43:44;;;;;;;88.97;37.67;;;;;;;-7.42;91.60;97909.41;2106869;28;20480;-76
2023/02/10 03:44:45;;;;;;;83.28;37.60;;;;;;;-7.34;92.96;97908.13;2097798;28;20042;-76
2023/02/10 03:45:46;;;;;;;83.72;38.22;;;;;;;-7.35;93.14;97903.91;2097929;28;20040;-77
2023/02/10 03:46:48;;;;;;;87.40;39.30;;;;;;;-7.37;91.97;97912.19;2106744;28;20629;-77
2023/02/10 03:47:49;;;;;;;81.13;35.78;;;;;;;-7.35;93.87;97906.41;2106894;28;20032;-75
2023/02/10 03:48:50;;;;;;;79.80;37.17;;;;;;;-7.39;92.56;97914.59;2106837;28;20036;-76
2023/02/10 03:49:51;;;;;;;81.10;35.72;;;;;;;-7.44;94.00;97916.00;2106755;28;20476;-77
2023/02/10 03:50:52;;;;;;;79.00;36.22;;;;;;;-7.55;92.85;97917.97;2106703;28;20036;-77
2023/02/10 03:51:53;;;;;;;84.63;38.00;;;;;;;-7.55;93.40;97922.16;2097709;28;20041;-77
2023/02/10 03:52:54;;;;;;;86.93;36.15;;;;;;;-7.57;93.56;97924.56;2097747;28;20476;-76
2023/02/10 03:53:55;;;;;;;81.95;36.58;;;;;;;-7.64;93.18;97932.63;2106672;28;20043;-77
2023/02/10 03:54:56;;;;;;;85.80;35.20;;;;;;;-7.73;92.96;97932.09;2106757;28;20044;-77
2023/02/10 03:55:57;;;;;;;85.43;36.42;;;;;;;-7.81;92.59;97938.38;2106564;28;20463;-76
2023/02/10 03:56:59;;;;;;;72.82;33.25;;;;;;;-7.88;92.29;97942.25;2106780;28;20040;-77
2023/02/10 03:58:01;;;;;;;76.60;34.33;;;;;;;-7.93;91.59;97940.25;2106242;28;20048;-77
2023/02/10 03:59:02;;;;;;;72.65;33.58;;;;;;;-8.00;91.41;97944.06;2106369;28;20044;-77
2023/02/10 04:00:04;;;;;;;88.15;36.00;;;;;;;-8.05;90.86;97953.03;2106603;28;20392;-77
2023/02/10 04:01:15;;;;;;;92.05;36.00;;;;;;;-8.01;90.86;97958.34;2106748;28;20036;-77
2023/02/10 04:02:16;;;;;;;93.18;38.10;;;;;;;-7.98;91.31;97955.13;2106682;28;20043;-76
2023/02/10 04:03:17;;;;;;;83.97;35.67;;;;;;;-7.96;91.71;97938.41;2106610;28;20036;-77
2023/02/10 04:04:18;;;;;;;76.65;36.47;;;;;;;-7.78;93.64;97954.56;2097832;28;20378;-77
2023/02/10 04:05:19;;;;;;;95.38;37.55;;;;;;;-7.66;93.84;97954.38;2097648;28;20041;-77
2023/02/10 04:06:20;;;;;;;87.45;37.03;;;;;;;-7.64;93.92;97951.94;2106597;28;20039;-77
2023/02/10 04:07:21;;;;;;;86.78;38.03;;;;;;;-7.66;93.42;97954.38;2106862;28;20127;-77
2023/02/10 04:08:22;;;;;;;85.75;36.55;;;;;;;-7.66;93.15;97958.56;2106721;28;20036;-77
2023/02/10 04:09:24;;;;;;;86.78;37.13;;;;;;;-7.72;93.48;97959.09;2106649;28;20040;-77
2023/02/10 04:10:25;;;;;;;90.20;37.97;;;;;;;-7.78;93.13;97953.69;2097797;28;20102;-77
2023/02/10 04:11:26;;;;;;;87.40;36.53;;;;;;;-7.84;91.72;97961.78;2097634;28;20036;-77
2023/02/10 04:12:27;;;;;;;76.63;35.20;;;;;;;-7.90;91.62;97961.44;2106728;28;20104;-77
2023/02/10 04:13:28;;;;;;;86.50;36.15;;;;;;;-7.97;90.41;97971.97;2106556;28;20039;-77
2023/02/10 04:14:29;;;;;;;84.43;36.08;;;;;;;-8.04;90.71;97968.25;2106620;28;20479;-77
2023/02/10 04:15:30;;;;;;;84.90;36.13;;;;;;;-8.10;89.98;97962.88;2106962;28;20039;-77
2023/02/10 04:16:33;;;;;;;91.38;37.80;;;;;;;-8.18;89.75;97963.19;2107043;28;20059;-78
2023/02/10 04:17:34;;;;;;;87.68;37.35;;;;;;;-8.27;90.17;97961.88;2106561;28;20035;-77
2023/02/10 04:18:35;;;;;;;80.88;35.10;;;;;;;-8.08;92.07;97970.50;2106637;28;20385;-77
2023/02/10 04:19:36;;;;;;;92.85;37.75;;;;;;;-8.04;93.15;97950.59;2097450;28;20045;-77
2023/02/10 04:20:37;;;;;;;85.65;36.00;;;;;;;-7.89;94.13;97964.84;2097704;28;20039;-77
2023/02/10 04:21:39;;;;;;;99.75;40.22;;;;;;;-7.70;94.65;97969.25;2106625;28;20062;-77
2023/02/10 04:22:40;;;;;;;94.63;38.85;;;;;;;-7.64;94.76;97965.41;2106475;28;20040;-77
2023/02/10 04:23:41;;;;;;;92.38;38.78;;;;;;;-7.54;94.78;97969.28;2106496;28;20036;-77
2023/02/10 04:24:42;;;;;;;87.40;37.28;;;;;;;-7.46;95.99;97960.47;2106610;28;20043;-77
2023/02/10 04:25:43;;;;;;;86.78;36.78;;;;;;;-7.49;96.28;97957.78;2106494;28;20044;-77
2023/02/10 04:26:44;;;;;;;86.40;37.25;;;;;;;-7.60;95.74;97962.25;2106492;28;20028;-77
2023/02/10 04:27:45;;;;;;;96.20;38.00;;;;;;;-7.68;95.58;97960.13;2106535;28;20048;-77
2023/02/10 04:28:46;;;;;;;84.22;35.67;;;;;;;-7.70;94.42;97961.69;2106499;28;20372;-77
2023/02/10 04:29:47;;;;;;;83.88;35.88;;;;;;;-7.77;93.53;97965.53;2106548;28;20035;-77
2023/02/10 04:30:55;;;;;;;78.90;34.20;;;;;;;-7.83;94.19;97968.59;2106616;28;20040;-77
2023/02/10 04:31:56;;;;;;;85.78;35.08;;;;;;;-7.96;93.21;97953.56;2097546;28;20526;-77
2023/02/10 04:32:57;;;;;;;85.03;36.33;;;;;;;-8.02;93.43;97965.78;2097506;28;20033;-77
2023/02/10 04:33:58;;;;;;;85.03;35.63;;;;;;;-8.06;91.91;97964.75;2106580;28;20044;-77
2023/02/10 04:35:00;;;;;;;90.22;36.83;;;;;;;-8.15;91.89;97965.88;2106510;28;20491;-77
2023/02/10 04:36:02;;;;;;;89.65;37.97;;;;;;;-8.15;92.22;97965.88;2097530;28;20334;-77
2023/02/10 04:37:03;;;;;;;89.20;36.90;;;;;;;-8.20;92.02;97965.66;2089604;28;20032;-77
2023/02/10 04:38:04;;;;;;;90.82;37.63;;;;;;;-8.12;93.40;97968.59;2097471;28;20037;-77
2023/02/10 04:39:05;;;;;;;90.43;39.25;;;;;;;-8.14;93.12;97960.94;2106423;28;20039;-77
2023/02/10 04:40:07;;;;;;;88.20;38.22;;;;;;;-8.12;92.67;97961.03;2106584;28;20483;-77
2023/02/10 04:41:08;;;;;;;88.10;35.95;;;;;;;-8.09;91.74;97968.78;2106519;28;20044;-76
2023/02/10 04:42:09;;;;;;;94.50;38.67;;;;;;;-8.14;91.59;97962.59;2097489;28;20051;-77
2023/02/10 04:43:11;;;;;;;89.05;37.08;;;;;;;-8.18;91.30;97968.25;2097507;28;20066;-76
2023/02/10 04:44:12;;;;;;;85.95;36.85;;;;;;;-8.24;91.24;97977.19;2106453;28;20044;-77
2023/02/10 04:45:13;;;;;;;81.78;34.40;;;;;;;-8.24;90.86;97971.28;2106397;28;20047;-77
2023/02/10 04:46:14;;;;;;;79.72;35.10;;;;;;;-8.26;90.91;97971.22;2106699;28;20044;-77
2023/02/10 04:47:15;;;;;;;83.38;36.08;;;;;;;-8.36;90.15;97963.91;2106462;28;20469;-77
2023/02/10 04:48:16;;;;;;;85.68;34.47;;;;;;;-8.34;90.07;97984.13;2106655;28;20035;-77
2023/02/10 04:49:18;;;;;;;91.18;36.85;;;;;;;-8.37;90.39;97979.78;2106298;28;20051;-77
2023/02/10 04:50:19;;;;;;;96.25;37.70;;;;;;;-8.37;91.83;97984.81;2106611;28;20043;-77
2023/02/10 04:51:20;;;;;;;89.43;38.97;;;;;;;-8.42;92.07;97981.19;2106422;28;20446;-77